createdAt,value
2023-05-11T00:02:10.596Z,17.17
2023-05-11T00:04:39.256Z,16.85
2023-05-11T00:07:08.938Z,17.24
2023-05-11T00:09:38.490Z,17.70
2023-05-11T00:12:07.802Z,17.94
2023-05-11T00:14:36.099Z,16.96
2023-05-11T00:17:04.344Z,16.76
2023-05-11T00:19:32.779Z,16.07
2023-05-11T00:22:01.445Z,16.91
2023-05-11T00:24:31.284Z,17.41
2023-05-11T00:26:59.604Z,17.74
2023-05-11T00:29:27.874Z,17.31
2023-05-11T00:31:56.251Z,17.36
2023-05-11T00:34:24.657Z,17.58
2023-05-11T00:36:52.944Z,17.88
2023-05-11T00:39:21.480Z,18.08
2023-05-11T00:41:51.113Z,18.20
2023-05-11T00:44:19.336Z,18.26
2023-05-11T00:46:47.794Z,18.27
2023-05-11T00:49:17.398Z,18.25
2023-05-11T00:51:46.435Z,18.27
2023-05-11T00:54:15.855Z,18.21
2023-05-11T00:56:44.141Z,17.07
2023-05-11T00:59:14.109Z,17.33
2023-05-11T01:01:42.431Z,17.18
2023-05-11T01:04:11.109Z,17.77
2023-05-11T01:06:52.554Z,17.41
2023-05-11T01:09:33.466Z,17.35
2023-05-11T01:12:13.929Z,17.55
2023-05-11T01:14:55.750Z,17.17
2023-05-11T01:17:32.778Z,17.62
2023-05-11T01:20:07.537Z,17.78
2023-05-11T01:22:57.849Z,16.73
2023-05-11T01:25:56.171Z,15.65
2023-05-11T01:29:03.253Z,15.79
2023-05-11T01:31:35.438Z,15.81
2023-05-11T01:34:10.391Z,15.21
2023-05-11T01:36:49.470Z,15.55
2023-05-11T01:39:22.597Z,16.12
2023-05-11T01:41:54.716Z,16.07
2023-05-11T01:44:26.815Z,16.45
2023-05-11T01:46:57.446Z,16.72
2023-05-11T01:49:26.123Z,16.50
2023-05-11T01:51:56.146Z,16.40
2023-05-11T01:54:26.091Z,15.77
2023-05-11T01:56:55.518Z,15.78
2023-05-11T01:59:25.831Z,16.80
2023-05-11T02:01:56.312Z,16.49
2023-05-11T02:04:26.207Z,16.46
2023-05-11T02:06:56.307Z,17.09
2023-05-11T02:09:25.942Z,16.14
2023-05-11T02:11:57.643Z,16.38
2023-05-11T02:14:28.502Z,16.57
2023-05-11T02:16:59.099Z,16.80
2023-05-11T02:19:29.122Z,16.23
2023-05-11T02:21:58.044Z,15.67
2023-05-11T02:24:28.454Z,16.30
2023-05-11T02:26:57.118Z,16.44
2023-05-11T02:29:25.573Z,16.20
2023-05-11T02:32:02.049Z,15.28
2023-05-11T02:34:34.058Z,15.56
2023-05-11T02:37:07.679Z,15.48
2023-05-11T02:39:37.708Z,16.11
2023-05-11T02:42:13.586Z,16.68
2023-05-11T02:44:48.243Z,17.06
2023-05-11T02:47:20.968Z,17.19
2023-05-11T02:49:53.794Z,17.20
2023-05-11T02:52:25.033Z,16.93
2023-05-11T02:54:56.537Z,16.64
2023-05-11T02:57:25.876Z,15.47
2023-05-11T02:59:54.429Z,16.17
2023-05-11T03:02:24.465Z,16.06
2023-05-11T03:04:52.888Z,16.37
2023-05-11T03:07:21.242Z,16.14
2023-05-11T03:09:49.701Z,16.00
2023-05-11T03:12:18.198Z,16.39
2023-05-11T03:14:46.875Z,16.92
2023-05-11T03:17:16.945Z,16.46
2023-05-11T03:19:46.711Z,16.13
2023-05-11T03:22:16.060Z,15.37
2023-05-11T03:24:45.086Z,15.26
2023-05-11T03:27:13.682Z,14.26
2023-05-11T03:29:44.548Z,15.43
2023-05-11T03:32:13.340Z,15.83
2023-05-11T03:34:41.754Z,15.49
2023-05-11T03:37:13.615Z,16.25
2023-05-11T03:39:44.955Z,16.69
2023-05-11T03:42:15.431Z,16.96
2023-05-11T03:44:47.449Z,17.13
2023-05-11T03:47:18.628Z,17.19
2023-05-11T03:49:47.348Z,17.03
2023-05-11T03:52:17.353Z,16.91
2023-05-11T03:54:45.772Z,17.10
2023-05-11T03:57:15.683Z,16.71
2023-05-11T03:59:43.974Z,15.57
2023-05-11T04:02:12.640Z,16.10
2023-05-11T04:04:41.055Z,16.45
2023-05-11T04:07:09.322Z,16.88
2023-05-11T04:09:38.996Z,16.84
2023-05-11T04:12:07.936Z,16.63
2023-05-11T04:14:36.210Z,16.20
2023-05-11T04:17:04.485Z,15.83
2023-05-11T04:19:32.754Z,16.13
2023-05-11T04:22:00.994Z,16.11
2023-05-11T04:24:29.278Z,16.52
2023-05-11T04:26:59.098Z,16.82
2023-05-11T04:29:27.466Z,17.06
2023-05-11T04:31:56.083Z,17.17
2023-05-11T04:34:24.442Z,17.27
2023-05-11T04:36:53.055Z,17.36
2023-05-11T04:39:21.769Z,17.28
2023-05-11T04:41:50.099Z,17.10
2023-05-11T04:44:19.707Z,17.19
2023-05-11T04:46:48.119Z,17.48
2023-05-11T04:49:16.377Z,16.58
2023-05-11T04:51:44.720Z,16.67
2023-05-11T04:54:12.986Z,17.06
2023-05-11T04:56:41.491Z,17.18
2023-05-11T04:59:09.736Z,16.61
2023-05-11T05:01:39.454Z,16.77
2023-05-11T05:04:08.204Z,16.82
2023-05-11T05:06:38.259Z,16.83
2023-05-11T05:09:07.017Z,17.32
2023-05-11T05:11:35.336Z,17.50
2023-05-11T05:14:03.577Z,17.54
2023-05-11T05:16:32.737Z,17.30
2023-05-11T05:19:02.512Z,16.93
2023-05-11T05:21:30.915Z,16.93
2023-05-11T05:23:59.171Z,17.23
2023-05-11T05:26:27.495Z,17.46
2023-05-11T05:28:55.744Z,17.52
2023-05-11T05:31:25.160Z,16.91
2023-05-11T05:33:53.570Z,16.46
2023-05-11T05:36:23.163Z,17.02
2023-05-11T05:38:51.427Z,16.44
2023-05-11T05:41:22.296Z,15.63
2023-05-11T05:43:51.610Z,16.39
2023-05-11T05:46:19.891Z,17.06
2023-05-11T05:48:48.199Z,17.15
2023-05-11T05:51:16.484Z,17.06
2023-05-11T05:53:46.584Z,17.22
2023-05-11T05:56:14.850Z,17.42
2023-05-11T05:58:43.394Z,17.43
2023-05-11T06:01:11.746Z,16.73
2023-05-11T06:03:40.737Z,17.04
2023-05-11T06:06:09.216Z,17.17
2023-05-11T06:08:37.462Z,17.33
2023-05-11T06:11:07.182Z,15.55
2023-05-11T06:13:35.393Z,16.08
2023-05-11T06:16:03.668Z,16.87
2023-05-11T06:18:31.987Z,16.81
2023-05-11T06:21:00.671Z,17.17
2023-05-11T06:23:28.935Z,17.41
2023-05-11T06:25:57.216Z,17.51
2023-05-11T06:28:26.808Z,17.57
2023-05-11T06:30:59.233Z,17.58
2023-05-11T06:33:27.642Z,17.66
2023-05-11T06:35:55.929Z,17.73
2023-05-11T06:38:24.441Z,17.61
2023-05-11T06:40:54.286Z,17.84
2023-05-11T06:43:22.562Z,18.08
2023-05-11T06:45:52.332Z,18.23
2023-05-11T06:48:23.375Z,18.35
2023-05-11T06:50:51.660Z,17.70
2023-05-11T06:53:19.971Z,18.09
2023-05-11T06:55:48.706Z,17.93
2023-05-11T06:58:20.563Z,18.01
2023-05-11T07:00:49.014Z,17.89
2023-05-11T07:03:18.711Z,18.40
2023-05-11T07:05:46.952Z,18.73
2023-05-11T07:08:15.309Z,18.68
2023-05-11T07:10:43.577Z,18.64
2023-05-11T07:13:11.857Z,18.41
2023-05-11T07:15:40.100Z,18.72
2023-05-11T07:18:08.372Z,19.49
2023-05-11T07:20:40.039Z,17.77
2023-05-11T07:23:08.379Z,18.76
2023-05-11T07:25:36.767Z,20.44
2023-05-11T07:28:05.060Z,18.97
2023-05-11T07:30:33.349Z,19.26
2023-05-11T07:33:02.610Z,19.65
2023-05-11T07:35:31.082Z,18.48
2023-05-11T07:38:00.730Z,17.99
2023-05-11T07:40:28.988Z,18.36
2023-05-11T07:42:57.245Z,17.38
2023-05-11T07:45:25.657Z,18.11
2023-05-11T07:47:53.942Z,18.25
2023-05-11T07:50:24.425Z,18.37
2023-05-11T07:52:53.151Z,19.02
2023-05-11T07:55:25.071Z,19.39
2023-05-11T07:57:54.549Z,19.38
2023-05-11T08:00:23.498Z,19.69
2023-05-11T08:02:52.849Z,19.42
2023-05-11T08:05:22.119Z,21.36
2023-05-11T08:07:50.512Z,20.42
2023-05-11T08:10:18.985Z,19.04
2023-05-11T08:12:48.640Z,19.96
2023-05-11T08:15:17.081Z,19.57
2023-05-11T08:17:46.217Z,20.68
2023-05-11T08:20:15.100Z,21.11
2023-05-11T08:22:43.418Z,20.70
2023-05-11T08:25:12.158Z,20.39
2023-05-11T08:27:40.726Z,19.82
2023-05-11T08:30:12.186Z,18.08
2023-05-11T08:32:50.557Z,17.19
2023-05-11T08:35:26.573Z,17.44
2023-05-11T08:37:54.811Z,17.42
2023-05-11T08:40:24.814Z,16.27
2023-05-11T08:42:56.756Z,16.11
2023-05-11T08:45:27.753Z,15.65
2023-05-11T08:47:56.410Z,16.85
2023-05-11T08:50:25.426Z,16.66
2023-05-11T08:52:53.672Z,16.67
2023-05-11T08:55:23.361Z,17.25
2023-05-11T08:57:52.679Z,16.81
2023-05-11T09:00:23.366Z,17.10
2023-05-11T09:02:53.532Z,17.41
2023-05-11T09:05:22.254Z,17.13
2023-05-11T09:07:55.406Z,17.41
2023-05-11T09:10:23.936Z,17.23
2023-05-11T09:12:52.220Z,17.93
2023-05-11T09:15:21.018Z,17.01
2023-05-11T09:17:49.372Z,16.72
2023-05-11T09:20:29.127Z,16.44
2023-05-11T09:22:58.441Z,16.75
2023-05-11T09:25:28.094Z,17.04
2023-05-11T09:27:58.835Z,16.62
2023-05-11T09:30:27.650Z,16.60
2023-05-11T09:32:57.968Z,17.19
2023-05-11T09:35:29.718Z,18.04
2023-05-11T09:38:07.843Z,17.67
2023-05-11T09:40:38.322Z,17.52
2023-05-11T09:43:18.554Z,17.32
2023-05-11T09:45:48.359Z,17.43
2023-05-11T09:48:30.686Z,17.32
2023-05-11T09:51:05.649Z,18.02
2023-05-11T09:53:43.888Z,17.73
2023-05-11T09:56:13.760Z,17.58
2023-05-11T09:58:51.674Z,17.65
2023-05-11T10:01:30.837Z,17.89
2023-05-11T10:04:17.967Z,18.10
2023-05-11T10:06:54.189Z,17.85
2023-05-11T10:09:26.075Z,18.10
2023-05-11T10:11:56.314Z,18.33
2023-05-11T10:14:26.188Z,18.97
2023-05-11T10:16:58.052Z,19.01
2023-05-11T10:19:26.986Z,18.09
2023-05-11T10:21:57.771Z,18.86
2023-05-11T10:24:27.111Z,18.70
2023-05-11T10:26:57.696Z,19.10
2023-05-11T10:29:26.088Z,19.30
2023-05-11T10:31:54.838Z,19.27
2023-05-11T10:34:25.171Z,19.50
2023-05-11T10:36:54.094Z,20.24
2023-05-11T10:39:24.164Z,19.52
2023-05-11T10:42:21.693Z,19.47
2023-05-11T10:45:16.118Z,19.94
2023-05-11T10:48:36.974Z,19.92
2023-05-11T10:51:56.072Z,20.12
2023-05-11T10:54:53.312Z,19.42
2023-05-11T10:57:53.658Z,20.11
2023-05-11T11:01:19.186Z,19.63
2023-05-11T11:03:59.426Z,20.04
2023-05-11T11:06:29.246Z,19.66
2023-05-11T11:08:59.764Z,19.73
2023-05-11T11:11:36.218Z,19.61
2023-05-11T11:14:06.146Z,19.82
2023-05-11T11:16:35.062Z,20.11
2023-05-11T11:19:38.552Z,19.94
2023-05-11T11:22:17.952Z,19.95
2023-05-11T11:24:48.008Z,20.19
2023-05-11T11:27:17.678Z,19.36
2023-05-11T11:30:18.455Z,20.35
2023-05-11T11:32:48.077Z,19.90
2023-05-11T11:35:48.813Z,20.43
2023-05-11T11:38:19.520Z,20.44
2023-05-11T11:40:51.799Z,20.64
2023-05-11T11:43:24.743Z,20.76
2023-05-11T11:45:55.884Z,20.39
2023-05-11T11:48:31.430Z,19.91
2023-05-11T11:51:05.193Z,20.36
2023-05-11T11:54:07.802Z,20.41
2023-05-11T11:56:43.724Z,19.81
2023-05-11T11:59:16.955Z,20.57
2023-05-11T12:01:46.566Z,20.57
2023-05-11T12:04:58.028Z,20.29
2023-05-11T12:07:27.421Z,19.34
2023-05-11T12:09:56.859Z,19.70
2023-05-11T12:12:25.199Z,19.95
2023-05-11T12:14:54.934Z,20.20
2023-05-11T12:17:29.774Z,19.81
2023-05-11T12:20:13.971Z,20.14
2023-05-11T12:22:42.429Z,19.93
2023-05-11T12:25:12.614Z,19.69
2023-05-11T12:27:50.669Z,19.36
2023-05-11T12:30:25.130Z,19.88
2023-05-11T12:32:57.669Z,20.19
2023-05-11T12:35:28.312Z,18.86
2023-05-11T12:37:58.181Z,19.57
2023-05-11T12:40:27.101Z,18.93
2023-05-11T12:42:57.440Z,19.33
2023-05-11T12:45:29.349Z,19.15
2023-05-11T12:47:58.829Z,18.16
2023-05-11T12:50:27.588Z,17.29
2023-05-11T12:52:56.143Z,17.77
2023-05-11T12:55:31.263Z,18.26
2023-05-11T12:58:09.729Z,18.24
2023-05-11T13:00:51.284Z,18.79
2023-05-11T13:03:23.985Z,18.93
2023-05-11T13:05:52.662Z,18.17
2023-05-11T13:08:21.362Z,18.86
2023-05-11T13:10:49.636Z,18.42
2023-05-11T13:13:30.748Z,18.45
2023-05-11T13:16:00.614Z,18.83
2023-05-11T13:18:29.011Z,18.68
2023-05-11T13:21:08.602Z,18.52
2023-05-11T13:23:37.355Z,18.82
2023-05-11T13:26:05.910Z,18.41
2023-05-11T13:28:35.563Z,18.64
2023-05-11T13:31:05.773Z,18.24
2023-05-11T13:33:34.643Z,18.89
2023-05-11T13:36:03.600Z,18.27
2023-05-11T13:38:31.866Z,19.33
2023-05-11T13:41:00.175Z,19.54
2023-05-11T13:43:28.419Z,19.09
2023-05-11T13:45:56.825Z,19.66
2023-05-11T13:48:26.578Z,19.67
2023-05-11T13:50:54.848Z,19.61
2023-05-11T13:53:23.393Z,18.89
2023-05-11T13:55:52.258Z,19.05
2023-05-11T13:58:20.824Z,17.96
2023-05-11T14:01:06.613Z,19.19
2023-05-11T14:03:37.430Z,18.70
2023-05-11T14:06:06.793Z,18.40
2023-05-11T14:08:35.091Z,18.78
2023-05-11T14:11:03.354Z,18.39
2023-05-11T14:13:31.697Z,17.77
2023-05-11T14:15:59.955Z,18.18
2023-05-11T14:18:28.357Z,17.99
2023-05-11T14:20:58.450Z,18.00
2023-05-11T14:23:26.840Z,18.72
2023-05-11T14:25:55.092Z,18.67
2023-05-11T14:28:24.019Z,18.69
2023-05-11T14:30:52.329Z,18.58
2023-05-11T14:33:20.628Z,19.27
2023-05-11T14:35:50.007Z,19.40
2023-05-11T14:38:19.766Z,19.21
2023-05-11T14:40:49.108Z,19.34
2023-05-11T14:43:18.488Z,19.29
2023-05-11T14:45:46.805Z,19.85
2023-05-11T14:48:15.111Z,18.93
2023-05-11T14:50:44.105Z,19.07
2023-05-11T14:53:12.750Z,18.98
2023-05-11T14:55:42.508Z,19.19
2023-05-11T14:58:11.120Z,17.98
2023-05-11T15:00:40.391Z,18.71
2023-05-11T15:03:10.768Z,19.43
2023-05-11T15:05:39.473Z,18.56
2023-05-11T15:08:18.343Z,18.99
2023-05-11T15:10:55.860Z,19.57
2023-05-11T15:13:24.419Z,19.45
2023-05-11T15:15:53.270Z,19.17
2023-05-11T15:18:21.636Z,18.12
2023-05-11T15:20:50.471Z,17.81
2023-05-11T15:23:18.944Z,18.70
2023-05-11T15:25:48.493Z,18.88
2023-05-11T15:28:18.241Z,17.89
2023-05-11T15:30:48.059Z,17.16
2023-05-11T15:33:16.522Z,16.12
2023-05-11T15:35:44.924Z,16.00
2023-05-11T15:38:13.294Z,15.03
2023-05-11T15:40:42.233Z,15.02
2023-05-11T15:43:10.777Z,15.69
2023-05-11T15:45:40.736Z,15.17
2023-05-11T15:48:09.709Z,15.35
2023-05-11T15:50:38.505Z,15.80
2023-05-11T15:53:07.086Z,15.93
2023-05-11T15:55:35.659Z,16.60
2023-05-11T15:58:08.353Z,16.08
2023-05-11T16:00:36.974Z,16.38
2023-05-11T16:03:07.553Z,16.98
2023-05-11T16:05:37.181Z,16.95
2023-05-11T16:08:06.437Z,16.05
2023-05-11T16:10:35.797Z,15.02
2023-05-11T16:13:04.322Z,15.02
2023-05-11T16:15:33.547Z,14.98
2023-05-11T16:18:04.588Z,14.97
2023-05-11T16:20:35.170Z,15.09
2023-05-11T16:23:04.240Z,15.91
2023-05-11T16:25:32.884Z,16.43
2023-05-11T16:28:01.530Z,17.42
2023-05-11T16:30:30.327Z,18.11
2023-05-11T16:32:59.132Z,18.65
2023-05-11T16:35:28.008Z,18.81
2023-05-11T16:37:59.741Z,19.07
2023-05-11T16:40:28.307Z,19.24
2023-05-11T16:42:57.189Z,19.39
2023-05-11T16:45:25.816Z,19.42
2023-05-11T16:47:54.492Z,19.44
2023-05-11T16:50:23.393Z,19.37
2023-05-11T16:52:51.988Z,19.54
2023-05-11T16:55:22.262Z,19.39
2023-05-11T16:57:51.641Z,19.39
2023-05-11T17:00:20.870Z,19.52
2023-05-11T17:02:50.762Z,19.44
2023-05-11T17:05:21.500Z,19.02
2023-05-11T17:07:50.125Z,19.19
2023-05-11T17:10:18.892Z,18.17
2023-05-11T17:12:48.996Z,18.28
2023-05-11T17:15:17.648Z,18.67
2023-05-11T17:17:46.244Z,18.98
2023-05-11T17:20:15.907Z,19.27
2023-05-11T17:22:45.266Z,19.35
2023-05-11T17:25:14.025Z,19.39
2023-05-11T17:27:43.036Z,19.08
2023-05-11T17:30:13.701Z,19.16
2023-05-11T17:32:42.398Z,19.14
2023-05-11T17:35:11.578Z,17.76
2023-05-11T17:37:40.393Z,18.34
2023-05-11T17:40:10.571Z,18.30
2023-05-11T17:42:39.070Z,18.67
2023-05-11T17:45:08.787Z,18.70
2023-05-11T17:47:38.756Z,18.93
2023-05-11T17:50:08.268Z,18.94
2023-05-11T17:52:36.997Z,19.15
2023-05-11T17:55:06.522Z,19.29
2023-05-11T17:57:35.041Z,19.43
2023-05-11T18:00:03.553Z,19.42
2023-05-11T18:02:32.359Z,19.42
2023-05-11T18:05:02.846Z,19.41
2023-05-11T18:07:31.374Z,19.33
2023-05-11T18:10:00.408Z,19.26
2023-05-11T18:12:30.390Z,19.25
2023-05-11T18:14:59.508Z,19.07
2023-05-11T18:17:28.108Z,19.13
2023-05-11T18:19:56.624Z,17.51
2023-05-11T18:22:26.518Z,17.89
2023-05-11T18:24:55.066Z,18.08
2023-05-11T18:27:23.637Z,18.45
2023-05-11T18:29:52.496Z,17.51
2023-05-11T18:32:21.113Z,18.05
2023-05-11T18:34:49.683Z,18.28
2023-05-11T18:37:18.226Z,17.82
2023-05-11T18:39:49.657Z,18.22
2023-05-11T18:42:19.126Z,16.36
2023-05-11T18:44:47.654Z,17.51
2023-05-11T18:47:17.658Z,18.14
2023-05-11T18:49:48.388Z,18.50
2023-05-11T18:52:17.971Z,18.54
2023-05-11T18:54:47.906Z,18.63
2023-05-11T18:57:18.867Z,18.74
2023-05-11T18:59:47.527Z,18.82
2023-05-11T19:02:16.209Z,18.92
2023-05-11T19:04:44.801Z,18.95
2023-05-11T19:07:13.317Z,19.01
2023-05-11T19:09:41.958Z,19.02
2023-05-11T19:12:11.907Z,19.03
2023-05-11T19:14:40.519Z,19.03
2023-05-11T19:17:09.014Z,18.78
2023-05-11T19:19:37.581Z,18.83
2023-05-11T19:22:07.012Z,18.86
2023-05-11T19:24:37.628Z,18.18
2023-05-11T19:27:08.068Z,18.31
2023-05-11T19:29:38.144Z,18.14
2023-05-11T19:32:07.371Z,18.42
2023-05-11T19:34:36.190Z,18.59
2023-05-11T19:37:04.814Z,18.34
2023-05-11T19:39:33.346Z,18.58
2023-05-11T19:42:01.969Z,18.68
2023-05-11T19:44:32.878Z,18.73
2023-05-11T19:47:02.924Z,18.79
2023-05-11T19:49:31.416Z,18.65
2023-05-11T19:51:59.964Z,18.58
2023-05-11T19:54:28.493Z,18.65
2023-05-11T19:56:57.496Z,18.72
2023-05-11T19:59:32.405Z,18.79
2023-05-11T20:02:03.030Z,18.79
2023-05-11T20:04:32.446Z,18.55
2023-05-11T20:07:01.006Z,18.71
2023-05-11T20:09:29.575Z,18.72
2023-05-11T20:11:58.106Z,18.76
2023-05-11T20:14:27.252Z,18.78
2023-05-11T20:16:55.740Z,18.79
2023-05-11T20:19:25.613Z,18.84
2023-05-11T20:21:54.106Z,18.87
2023-05-11T20:24:22.654Z,18.82
2023-05-11T20:26:51.168Z,18.87
2023-05-11T20:29:19.665Z,18.88
2023-05-11T20:31:48.252Z,18.90
2023-05-11T20:34:17.031Z,18.94
2023-05-11T20:36:48.710Z,18.34
2023-05-11T20:39:17.405Z,17.47
2023-05-11T20:41:45.901Z,17.84
2023-05-11T20:44:14.430Z,18.04
2023-05-11T20:46:43.786Z,16.80
2023-05-11T20:49:16.761Z,16.87
2023-05-11T20:51:53.737Z,15.96
2023-05-11T20:54:22.679Z,14.80
2023-05-11T20:56:51.396Z,16.22
2023-05-11T21:01:51.518Z,15.54
2023-05-11T21:04:20.061Z,16.14
2023-05-11T21:06:48.807Z,17.32
2023-05-11T21:09:18.678Z,15.79
2023-05-11T21:11:48.403Z,16.16
2023-05-11T21:14:16.985Z,16.45
2023-05-11T21:16:45.558Z,15.70
2023-05-11T21:19:15.920Z,15.39
2023-05-11T21:21:44.455Z,15.79
2023-05-11T21:24:13.991Z,15.98
2023-05-11T21:26:47.895Z,16.81
2023-05-11T21:29:16.769Z,17.23
2023-05-11T21:31:45.333Z,17.50
2023-05-11T21:34:13.881Z,17.87
2023-05-11T21:36:42.437Z,17.35
2023-05-11T21:39:13.040Z,17.78
2023-05-11T21:41:42.945Z,18.09
2023-05-11T21:44:11.474Z,18.28
2023-05-11T21:46:40.022Z,18.05
2023-05-11T21:49:09.195Z,18.06
2023-05-11T21:51:37.704Z,18.03
2023-05-11T21:54:06.567Z,18.05
2023-05-11T21:56:35.095Z,18.26
2023-05-11T21:59:05.120Z,18.42
2023-05-11T22:01:33.714Z,17.76
2023-05-11T22:04:02.547Z,17.43
2023-05-11T22:06:31.542Z,15.77
2023-05-11T22:09:00.083Z,17.00
2023-05-11T22:11:28.683Z,16.07
2023-05-11T22:13:57.223Z,16.52
2023-05-11T22:16:27.187Z,15.59
2023-05-11T22:18:55.787Z,15.45
2023-05-11T22:21:26.738Z,16.62
2023-05-11T22:23:55.326Z,15.79
2023-05-11T22:26:23.863Z,15.35
2023-05-11T22:28:52.367Z,15.07
2023-05-11T22:31:21.252Z,15.81
2023-05-11T22:33:51.140Z,15.70
2023-05-11T22:36:19.696Z,16.20
2023-05-11T22:38:48.234Z,16.27
2023-05-11T22:41:16.783Z,15.38
2023-05-11T22:43:45.268Z,15.35
2023-05-11T22:46:13.840Z,14.63
2023-05-11T22:48:42.640Z,14.89
2023-05-11T22:51:12.772Z,15.23
2023-05-11T22:53:41.289Z,14.67
2023-05-11T22:56:09.992Z,14.43
2023-05-11T22:58:38.525Z,14.69
2023-05-11T23:01:07.111Z,14.95
2023-05-11T23:03:35.968Z,14.47
2023-05-11T23:06:04.640Z,14.80
2023-05-11T23:08:34.529Z,14.61
2023-05-11T23:11:03.072Z,15.10
2023-05-11T23:13:31.584Z,15.02
2023-05-11T23:16:00.073Z,15.37
2023-05-11T23:18:28.855Z,15.49
2023-05-11T23:20:57.977Z,15.33
2023-05-11T23:23:26.961Z,14.75
2023-05-11T23:25:56.872Z,14.89
2023-05-11T23:28:25.392Z,14.97
2023-05-11T23:30:53.883Z,14.29
2023-05-11T23:33:22.942Z,14.81
2023-05-11T23:35:51.683Z,14.95
2023-05-11T23:38:20.209Z,15.05
2023-05-11T23:40:48.707Z,16.25
2023-05-11T23:43:18.586Z,16.63
2023-05-11T23:45:47.119Z,15.47
2023-05-11T23:48:15.708Z,16.05
2023-05-11T23:50:44.230Z,16.75
2023-05-11T23:53:13.247Z,15.72
2023-05-11T23:55:41.858Z,15.98
2023-05-11T23:58:10.407Z,15.68
